sensor_id;sensor_type;location;lat;lon;timestamp;P1;durP1;ratioP1;P2;durP2;ratioP2
63511;SDS011;49666;52.030;8.884;2024-01-15T00:01:28;16.77;;;8.75;;
63511;SDS011;49666;52.030;8.884;2024-01-15T00:03:53;12.80;;;7.50;;
63511;SDS011;49666;52.030;8.884;2024-01-15T00:06:19;14.93;;;8.57;;
63511;SDS011;49666;52.030;8.884;2024-01-15T00:08:44;14.50;;;7.75;;
63511;SDS011;49666;52.030;8.884;2024-01-15T00:11:09;15.25;;;8.25;;
63511;SDS011;49666;52.030;8.884;2024-01-15T00:13:35;14.18;;;8.07;;
63511;SDS011;49666;52.030;8.884;2024-01-15T00:16:00;15.18;;;8.35;;
63511;SDS011;49666;52.030;8.884;2024-01-15T00:18:25;16.08;;;7.95;;
63511;SDS011;49666;52.030;8.884;2024-01-15T00:20:51;13.75;;;7.72;;
63511;SDS011;49666;52.030;8.884;2024-01-15T00:23:16;12.85;;;7.50;;
63511;SDS011;49666;52.030;8.884;2024-01-15T00:25:41;15.43;;;8.43;;
63511;SDS011;49666;52.030;8.884;2024-01-15T00:28:07;16.17;;;8.98;;
63511;SDS011;49666;52.030;8.884;2024-01-15T00:30:32;13.02;;;7.10;;
63511;SDS011;49666;52.030;8.884;2024-01-15T00:32:57;14.13;;;7.88;;
63511;SDS011;49666;52.030;8.884;2024-01-15T00:35:22;14.75;;;8.23;;
63511;SDS011;49666;52.030;8.884;2024-01-15T00:37:48;16.30;;;8.40;;
63511;SDS011;49666;52.030;8.884;2024-01-15T00:40:13;14.07;;;6.82;;
63511;SDS011;49666;52.030;8.884;2024-01-15T00:42:38;12.00;;;7.32;;
63511;SDS011;49666;52.030;8.884;2024-01-15T00:45:04;12.50;;;6.95;;
63511;SDS011;49666;52.030;8.884;2024-01-15T00:47:30;10.95;;;6.50;;
63511;SDS011;49666;52.030;8.884;2024-01-15T00:49:55;12.60;;;6.35;;
63511;SDS011;49666;52.030;8.884;2024-01-15T00:52:21;14.77;;;7.82;;
63511;SDS011;49666;52.030;8.884;2024-01-15T00:54:46;12.52;;;6.47;;
63511;SDS011;49666;52.030;8.884;2024-01-15T00:57:11;14.57;;;7.90;;
63511;SDS011;49666;52.030;8.884;2024-01-15T00:59:36;13.18;;;6.85;;
63511;SDS011;49666;52.030;8.884;2024-01-15T01:02:02;15.57;;;7.30;;
63511;SDS011;49666;52.030;8.884;2024-01-15T01:04:28;14.07;;;7.05;;
63511;SDS011;49666;52.030;8.884;2024-01-15T01:06:53;13.77;;;6.85;;
63511;SDS011;49666;52.030;8.884;2024-01-15T01:09:18;15.27;;;7.30;;
63511;SDS011;49666;52.030;8.884;2024-01-15T01:11:44;14.55;;;6.55;;
63511;SDS011;49666;52.030;8.884;2024-01-15T01:14:09;12.10;;;6.47;;
63511;SDS011;49666;52.030;8.884;2024-01-15T01:16:34;12.57;;;6.90;;
63511;SDS011;49666;52.030;8.884;2024-01-15T01:19:04;18.02;;;7.15;;
63511;SDS011;49666;52.030;8.884;2024-01-15T01:21:30;17.15;;;6.93;;
63511;SDS011;49666;52.030;8.884;2024-01-15T01:23:56;15.27;;;6.65;;
63511;SDS011;49666;52.030;8.884;2024-01-15T01:26:21;12.00;;;5.43;;
63511;SDS011;49666;52.030;8.884;2024-01-15T01:28:46;14.43;;;7.03;;
63511;SDS011;49666;52.030;8.884;2024-01-15T01:31:11;12.52;;;6.13;;
63511;SDS011;49666;52.030;8.884;2024-01-15T01:33:38;11.43;;;5.85;;
63511;SDS011;49666;52.030;8.884;2024-01-15T01:36:06;14.68;;;6.75;;
63511;SDS011;49666;52.030;8.884;2024-01-15T01:38:32;10.52;;;5.30;;
63511;SDS011;49666;52.030;8.884;2024-01-15T01:40:58;12.50;;;5.35;;
63511;SDS011;49666;52.030;8.884;2024-01-15T01:43:23;12.77;;;5.20;;
63511;SDS011;49666;52.030;8.884;2024-01-15T01:45:48;14.38;;;6.10;;
63511;SDS011;49666;52.030;8.884;2024-01-15T01:48:13;14.35;;;4.85;;
63511;SDS011;49666;52.030;8.884;2024-01-15T01:50:39;12.68;;;5.25;;
63511;SDS011;49666;52.030;8.884;2024-01-15T01:53:04;15.93;;;5.07;;
63511;SDS011;49666;52.030;8.884;2024-01-15T01:55:30;13.40;;;4.45;;
63511;SDS011;49666;52.030;8.884;2024-01-15T01:57:58;12.35;;;5.03;;
63511;SDS011;49666;52.030;8.884;2024-01-15T02:00:24;13.02;;;4.63;;
63511;SDS011;49666;52.030;8.884;2024-01-15T02:02:49;10.07;;;3.65;;
63511;SDS011;49666;52.030;8.884;2024-01-15T02:05:15;8.23;;;3.60;;
63511;SDS011;49666;52.030;8.884;2024-01-15T02:07:44;13.48;;;4.03;;
63511;SDS011;49666;52.030;8.884;2024-01-15T02:10:09;10.82;;;3.67;;
63511;SDS011;49666;52.030;8.884;2024-01-15T02:12:35;9.35;;;3.60;;
63511;SDS011;49666;52.030;8.884;2024-01-15T02:15:00;13.43;;;4.40;;
63511;SDS011;49666;52.030;8.884;2024-01-15T02:17:26;8.05;;;2.97;;
63511;SDS011;49666;52.030;8.884;2024-01-15T02:19:51;7.30;;;2.78;;
63511;SDS011;49666;52.030;8.884;2024-01-15T02:22:17;8.93;;;3.35;;
63511;SDS011;49666;52.030;8.884;2024-01-15T02:24:42;6.10;;;3.00;;
63511;SDS011;49666;52.030;8.884;2024-01-15T02:27:07;10.23;;;3.95;;
63511;SDS011;49666;52.030;8.884;2024-01-15T02:29:33;12.23;;;4.07;;
63511;SDS011;49666;52.030;8.884;2024-01-15T02:31:58;9.38;;;4.32;;
63511;SDS011;49666;52.030;8.884;2024-01-15T02:34:23;11.90;;;4.20;;
63511;SDS011;49666;52.030;8.884;2024-01-15T02:36:49;10.75;;;4.07;;
63511;SDS011;49666;52.030;8.884;2024-01-15T02:39:14;10.48;;;4.03;;
63511;SDS011;49666;52.030;8.884;2024-01-15T02:41:39;11.30;;;3.95;;
63511;SDS011;49666;52.030;8.884;2024-01-15T02:44:05;9.65;;;3.25;;
63511;SDS011;49666;52.030;8.884;2024-01-15T02:46:30;11.20;;;4.32;;
63511;SDS011;49666;52.030;8.884;2024-01-15T02:48:55;10.88;;;3.38;;
63511;SDS011;49666;52.030;8.884;2024-01-15T02:51:20;9.95;;;4.32;;
63511;SDS011;49666;52.030;8.884;2024-01-15T02:53:46;10.65;;;3.83;;
63511;SDS011;49666;52.030;8.884;2024-01-15T02:56:11;12.93;;;4.28;;
63511;SDS011;49666;52.030;8.884;2024-01-15T02:58:37;9.40;;;3.63;;
63511;SDS011;49666;52.030;8.884;2024-01-15T03:01:02;12.52;;;3.70;;
63511;SDS011;49666;52.030;8.884;2024-01-15T03:03:27;11.77;;;3.67;;
63511;SDS011;49666;52.030;8.884;2024-01-15T03:05:53;9.05;;;4.13;;
63511;SDS011;49666;52.030;8.884;2024-01-15T03:08:18;8.73;;;3.58;;
63511;SDS011;49666;52.030;8.884;2024-01-15T03:10:43;10.13;;;3.33;;
63511;SDS011;49666;52.030;8.884;2024-01-15T03:13:08;12.13;;;3.70;;
63511;SDS011;49666;52.030;8.884;2024-01-15T03:15:34;10.52;;;4.13;;
63511;SDS011;49666;52.030;8.884;2024-01-15T03:17:59;17.50;;;5.25;;
63511;SDS011;49666;52.030;8.884;2024-01-15T03:20:24;8.45;;;3.60;;
63511;SDS011;49666;52.030;8.884;2024-01-15T03:22:50;13.23;;;4.47;;
63511;SDS011;49666;52.030;8.884;2024-01-15T03:25:15;10.15;;;4.53;;
63511;SDS011;49666;52.030;8.884;2024-01-15T03:27:40;8.02;;;3.92;;
63511;SDS011;49666;52.030;8.884;2024-01-15T03:30:06;11.15;;;3.72;;
63511;SDS011;49666;52.030;8.884;2024-01-15T03:32:32;11.35;;;4.50;;
63511;SDS011;49666;52.030;8.884;2024-01-15T03:34:57;13.60;;;4.93;;
63511;SDS011;49666;52.030;8.884;2024-01-15T03:37:22;12.77;;;4.68;;
63511;SDS011;49666;52.030;8.884;2024-01-15T03:39:48;10.32;;;5.03;;
63511;SDS011;49666;52.030;8.884;2024-01-15T03:42:13;10.38;;;4.95;;
63511;SDS011;49666;52.030;8.884;2024-01-15T03:44:39;10.98;;;4.82;;
63511;SDS011;49666;52.030;8.884;2024-01-15T03:47:04;12.48;;;4.57;;
63511;SDS011;49666;52.030;8.884;2024-01-15T03:49:30;12.00;;;4.78;;
63511;SDS011;49666;52.030;8.884;2024-01-15T03:51:55;10.48;;;4.82;;
63511;SDS011;49666;52.030;8.884;2024-01-15T03:54:20;9.02;;;4.47;;
63511;SDS011;49666;52.030;8.884;2024-01-15T03:56:46;18.17;;;5.43;;
63511;SDS011;49666;52.030;8.884;2024-01-15T03:59:11;14.75;;;5.65;;
63511;SDS011;49666;52.030;8.884;2024-01-15T04:01:36;13.93;;;5.32;;
63511;SDS011;49666;52.030;8.884;2024-01-15T04:04:02;10.98;;;5.47;;
63511;SDS011;49666;52.030;8.884;2024-01-15T04:06:27;12.32;;;5.55;;
63511;SDS011;49666;52.030;8.884;2024-01-15T04:08:52;13.52;;;5.80;;
63511;SDS011;49666;52.030;8.884;2024-01-15T04:11:18;13.13;;;5.72;;
63511;SDS011;49666;52.030;8.884;2024-01-15T04:13:43;12.65;;;5.68;;
63511;SDS011;49666;52.030;8.884;2024-01-15T04:16:08;16.50;;;5.22;;
63511;SDS011;49666;52.030;8.884;2024-01-15T04:18:33;11.38;;;4.55;;
63511;SDS011;49666;52.030;8.884;2024-01-15T04:20:59;11.73;;;4.97;;
63511;SDS011;49666;52.030;8.884;2024-01-15T04:23:24;16.15;;;5.65;;
63511;SDS011;49666;52.030;8.884;2024-01-15T04:25:49;15.85;;;4.78;;
63511;SDS011;49666;52.030;8.884;2024-01-15T04:28:15;13.98;;;4.68;;
63511;SDS011;49666;52.030;8.884;2024-01-15T04:30:40;14.00;;;4.90;;
63511;SDS011;49666;52.030;8.884;2024-01-15T04:33:05;15.32;;;6.10;;
63511;SDS011;49666;52.030;8.884;2024-01-15T04:35:31;15.65;;;4.68;;
63511;SDS011;49666;52.030;8.884;2024-01-15T04:37:56;9.88;;;4.13;;
63511;SDS011;49666;52.030;8.884;2024-01-15T04:40:21;15.45;;;4.00;;
63511;SDS011;49666;52.030;8.884;2024-01-15T04:42:47;17.50;;;4.82;;
63511;SDS011;49666;52.030;8.884;2024-01-15T04:45:12;13.43;;;4.57;;
63511;SDS011;49666;52.030;8.884;2024-01-15T04:47:38;12.98;;;3.65;;
63511;SDS011;49666;52.030;8.884;2024-01-15T04:50:04;10.98;;;4.53;;
63511;SDS011;49666;52.030;8.884;2024-01-15T04:52:30;10.73;;;4.43;;
63511;SDS011;49666;52.030;8.884;2024-01-15T04:54:56;19.55;;;4.65;;
63511;SDS011;49666;52.030;8.884;2024-01-15T04:57:21;13.35;;;4.35;;
63511;SDS011;49666;52.030;8.884;2024-01-15T04:59:46;11.48;;;4.85;;
63511;SDS011;49666;52.030;8.884;2024-01-15T05:02:12;14.68;;;5.03;;
63511;SDS011;49666;52.030;8.884;2024-01-15T05:04:37;9.25;;;3.97;;
63511;SDS011;49666;52.030;8.884;2024-01-15T05:07:02;8.57;;;4.50;;
63511;SDS011;49666;52.030;8.884;2024-01-15T05:09:28;14.73;;;5.47;;
63511;SDS011;49666;52.030;8.884;2024-01-15T05:11:53;10.40;;;4.20;;
63511;SDS011;49666;52.030;8.884;2024-01-15T05:14:19;9.68;;;3.83;;
63511;SDS011;49666;52.030;8.884;2024-01-15T05:16:47;9.30;;;4.40;;
63511;SDS011;49666;52.030;8.884;2024-01-15T05:19:14;9.95;;;4.30;;
63511;SDS011;49666;52.030;8.884;2024-01-15T05:21:39;11.35;;;4.25;;
63511;SDS011;49666;52.030;8.884;2024-01-15T05:24:05;11.40;;;4.25;;
63511;SDS011;49666;52.030;8.884;2024-01-15T05:26:30;14.07;;;4.63;;
63511;SDS011;49666;52.030;8.884;2024-01-15T05:28:55;12.70;;;5.32;;
63511;SDS011;49666;52.030;8.884;2024-01-15T05:31:21;7.90;;;3.97;;
63511;SDS011;49666;52.030;8.884;2024-01-15T05:33:46;8.30;;;3.92;;
63511;SDS011;49666;52.030;8.884;2024-01-15T05:36:11;10.75;;;4.13;;
63511;SDS011;49666;52.030;8.884;2024-01-15T05:38:37;9.82;;;4.15;;
63511;SDS011;49666;52.030;8.884;2024-01-15T05:41:02;10.52;;;4.05;;
63511;SDS011;49666;52.030;8.884;2024-01-15T05:43:27;10.65;;;3.90;;
63511;SDS011;49666;52.030;8.884;2024-01-15T05:45:53;10.80;;;4.53;;
63511;SDS011;49666;52.030;8.884;2024-01-15T05:48:18;9.68;;;3.95;;
63511;SDS011;49666;52.030;8.884;2024-01-15T05:50:43;11.00;;;4.00;;
63511;SDS011;49666;52.030;8.884;2024-01-15T05:53:09;9.35;;;4.22;;
63511;SDS011;49666;52.030;8.884;2024-01-15T05:55:35;9.15;;;3.95;;
63511;SDS011;49666;52.030;8.884;2024-01-15T05:58:01;9.38;;;3.75;;
63511;SDS011;49666;52.030;8.884;2024-01-15T06:00:26;9.18;;;4.38;;
63511;SDS011;49666;52.030;8.884;2024-01-15T06:02:51;11.43;;;3.75;;
63511;SDS011;49666;52.030;8.884;2024-01-15T06:05:17;11.25;;;4.20;;
63511;SDS011;49666;52.030;8.884;2024-01-15T06:07:43;9.65;;;4.20;;
63511;SDS011;49666;52.030;8.884;2024-01-15T06:10:08;7.53;;;4.47;;
63511;SDS011;49666;52.030;8.884;2024-01-15T06:12:33;8.93;;;4.13;;
63511;SDS011;49666;52.030;8.884;2024-01-15T06:14:59;11.45;;;4.35;;
63511;SDS011;49666;52.030;8.884;2024-01-15T06:17:24;11.70;;;4.50;;
63511;SDS011;49666;52.030;8.884;2024-01-15T06:19:49;7.50;;;3.60;;
63511;SDS011;49666;52.030;8.884;2024-01-15T06:22:15;8.90;;;4.72;;
63511;SDS011;49666;52.030;8.884;2024-01-15T06:24:40;8.60;;;3.47;;
63511;SDS011;49666;52.030;8.884;2024-01-15T06:27:06;11.40;;;3.72;;
63511;SDS011;49666;52.030;8.884;2024-01-15T06:29:31;5.10;;;3.13;;
63511;SDS011;49666;52.030;8.884;2024-01-15T06:31:57;6.72;;;3.53;;
63511;SDS011;49666;52.030;8.884;2024-01-15T06:34:22;7.97;;;4.30;;
63511;SDS011;49666;52.030;8.884;2024-01-15T06:36:47;9.07;;;3.60;;
63511;SDS011;49666;52.030;8.884;2024-01-15T06:39:13;8.80;;;3.80;;
63511;SDS011;49666;52.030;8.884;2024-01-15T06:41:38;5.90;;;3.45;;
63511;SDS011;49666;52.030;8.884;2024-01-15T06:44:08;6.38;;;3.40;;
63511;SDS011;49666;52.030;8.884;2024-01-15T06:46:36;7.55;;;3.38;;
63511;SDS011;49666;52.030;8.884;2024-01-15T06:49:06;9.98;;;3.60;;
63511;SDS011;49666;52.030;8.884;2024-01-15T06:51:31;11.32;;;3.85;;
63511;SDS011;49666;52.030;8.884;2024-01-15T06:53:57;8.20;;;3.88;;
63511;SDS011;49666;52.030;8.884;2024-01-15T06:56:22;5.32;;;3.08;;
63511;SDS011;49666;52.030;8.884;2024-01-15T06:58:47;10.77;;;5.45;;
63511;SDS011;49666;52.030;8.884;2024-01-15T07:01:13;7.53;;;3.67;;
63511;SDS011;49666;52.030;8.884;2024-01-15T07:03:38;8.60;;;3.97;;
63511;SDS011;49666;52.030;8.884;2024-01-15T07:06:03;5.38;;;3.42;;
63511;SDS011;49666;52.030;8.884;2024-01-15T07:08:29;8.63;;;4.15;;
63511;SDS011;49666;52.030;8.884;2024-01-15T07:10:55;12.88;;;4.68;;
63511;SDS011;49666;52.030;8.884;2024-01-15T07:13:20;5.30;;;3.33;;
63511;SDS011;49666;52.030;8.884;2024-01-15T07:15:46;8.98;;;4.10;;
63511;SDS011;49666;52.030;8.884;2024-01-15T07:18:11;7.35;;;3.95;;
63511;SDS011;49666;52.030;8.884;2024-01-15T07:20:36;8.32;;;3.58;;
63511;SDS011;49666;52.030;8.884;2024-01-15T07:23:01;10.82;;;4.65;;
63511;SDS011;49666;52.030;8.884;2024-01-15T07:25:27;6.97;;;3.95;;
63511;SDS011;49666;52.030;8.884;2024-01-15T07:27:52;9.73;;;4.88;;
63511;SDS011;49666;52.030;8.884;2024-01-15T07:30:19;10.52;;;3.80;;
63511;SDS011;49666;52.030;8.884;2024-01-15T07:32:46;8.60;;;3.75;;
63511;SDS011;49666;52.030;8.884;2024-01-15T07:35:12;9.95;;;4.43;;
63511;SDS011;49666;52.030;8.884;2024-01-15T07:37:37;6.07;;;3.70;;
63511;SDS011;49666;52.030;8.884;2024-01-15T07:40:02;7.90;;;4.43;;
63511;SDS011;49666;52.030;8.884;2024-01-15T07:42:29;6.15;;;3.53;;
63511;SDS011;49666;52.030;8.884;2024-01-15T07:44:54;6.80;;;3.35;;
63511;SDS011;49666;52.030;8.884;2024-01-15T07:47:20;8.05;;;3.90;;
63511;SDS011;49666;52.030;8.884;2024-01-15T07:49:45;9.27;;;3.35;;
63511;SDS011;49666;52.030;8.884;2024-01-15T07:52:10;8.60;;;3.40;;
63511;SDS011;49666;52.030;8.884;2024-01-15T07:54:37;6.55;;;3.65;;
63511;SDS011;49666;52.030;8.884;2024-01-15T07:57:03;10.95;;;3.38;;
63511;SDS011;49666;52.030;8.884;2024-01-15T07:59:28;7.95;;;3.75;;
63511;SDS011;49666;52.030;8.884;2024-01-15T08:01:54;6.80;;;3.28;;
63511;SDS011;49666;52.030;8.884;2024-01-15T08:04:19;11.65;;;4.20;;
63511;SDS011;49666;52.030;8.884;2024-01-15T08:06:46;7.18;;;3.00;;
63511;SDS011;49666;52.030;8.884;2024-01-15T08:09:12;10.45;;;3.10;;
63511;SDS011;49666;52.030;8.884;2024-01-15T08:11:41;5.93;;;2.60;;
63511;SDS011;49666;52.030;8.884;2024-01-15T08:14:07;8.98;;;3.17;;
63511;SDS011;49666;52.030;8.884;2024-01-15T08:16:33;6.55;;;2.83;;
63511;SDS011;49666;52.030;8.884;2024-01-15T08:18:59;10.90;;;3.63;;
63511;SDS011;49666;52.030;8.884;2024-01-15T08:21:24;5.53;;;3.45;;
63511;SDS011;49666;52.030;8.884;2024-01-15T08:23:50;18.23;;;8.00;;
63511;SDS011;49666;52.030;8.884;2024-01-15T08:26:15;13.02;;;8.40;;
63511;SDS011;49666;52.030;8.884;2024-01-15T08:28:41;11.50;;;6.97;;
63511;SDS011;49666;52.030;8.884;2024-01-15T08:31:06;8.85;;;6.10;;
63511;SDS011;49666;52.030;8.884;2024-01-15T08:33:31;8.77;;;4.63;;
63511;SDS011;49666;52.030;8.884;2024-01-15T08:35:57;8.07;;;4.90;;
63511;SDS011;49666;52.030;8.884;2024-01-15T08:38:22;10.63;;;4.28;;
63511;SDS011;49666;52.030;8.884;2024-01-15T08:40:48;12.55;;;4.78;;
63511;SDS011;49666;52.030;8.884;2024-01-15T08:43:14;8.27;;;3.72;;
63511;SDS011;49666;52.030;8.884;2024-01-15T08:45:39;7.20;;;3.75;;
63511;SDS011;49666;52.030;8.884;2024-01-15T08:48:05;9.15;;;4.03;;
63511;SDS011;49666;52.030;8.884;2024-01-15T08:50:31;6.53;;;3.83;;
63511;SDS011;49666;52.030;8.884;2024-01-15T08:52:57;7.30;;;4.13;;
63511;SDS011;49666;52.030;8.884;2024-01-15T08:55:23;9.55;;;3.70;;
63511;SDS011;49666;52.030;8.884;2024-01-15T08:57:49;6.57;;;3.65;;
63511;SDS011;49666;52.030;8.884;2024-01-15T09:00:14;7.38;;;3.95;;
63511;SDS011;49666;52.030;8.884;2024-01-15T09:02:40;4.88;;;2.70;;
63511;SDS011;49666;52.030;8.884;2024-01-15T09:05:05;4.53;;;2.88;;
63511;SDS011;49666;52.030;8.884;2024-01-15T09:07:31;4.47;;;3.10;;
63511;SDS011;49666;52.030;8.884;2024-01-15T09:09:57;5.85;;;3.58;;
63511;SDS011;49666;52.030;8.884;2024-01-15T09:12:24;6.95;;;2.95;;
63511;SDS011;49666;52.030;8.884;2024-01-15T09:14:49;7.45;;;4.25;;
63511;SDS011;49666;52.030;8.884;2024-01-15T09:17:15;4.13;;;2.83;;
63511;SDS011;49666;52.030;8.884;2024-01-15T09:19:40;3.65;;;2.47;;
63511;SDS011;49666;52.030;8.884;2024-01-15T09:22:06;3.47;;;2.40;;
63511;SDS011;49666;52.030;8.884;2024-01-15T09:24:32;3.92;;;2.30;;
63511;SDS011;49666;52.030;8.884;2024-01-15T09:26:57;4.47;;;2.30;;
63511;SDS011;49666;52.030;8.884;2024-01-15T09:29:23;4.68;;;2.40;;
63511;SDS011;49666;52.030;8.884;2024-01-15T09:31:48;4.13;;;2.22;;
63511;SDS011;49666;52.030;8.884;2024-01-15T09:34:15;4.35;;;2.50;;
63511;SDS011;49666;52.030;8.884;2024-01-15T09:36:40;4.00;;;2.75;;
63511;SDS011;49666;52.030;8.884;2024-01-15T09:39:07;6.45;;;2.50;;
63511;SDS011;49666;52.030;8.884;2024-01-15T09:41:36;7.07;;;2.42;;
63511;SDS011;49666;52.030;8.884;2024-01-15T09:44:02;4.07;;;2.08;;
63511;SDS011;49666;52.030;8.884;2024-01-15T09:46:29;4.38;;;2.60;;
63511;SDS011;49666;52.030;8.884;2024-01-15T09:48:56;7.05;;;3.50;;
63511;SDS011;49666;52.030;8.884;2024-01-15T09:51:22;6.45;;;4.45;;
63511;SDS011;49666;52.030;8.884;2024-01-15T09:53:49;5.00;;;3.78;;
63511;SDS011;49666;52.030;8.884;2024-01-15T09:56:15;5.28;;;3.20;;
63511;SDS011;49666;52.030;8.884;2024-01-15T09:58:41;4.35;;;3.13;;
63511;SDS011;49666;52.030;8.884;2024-01-15T10:01:07;7.68;;;3.40;;
63511;SDS011;49666;52.030;8.884;2024-01-15T10:03:33;6.90;;;3.67;;
63511;SDS011;49666;52.030;8.884;2024-01-15T10:05:59;8.85;;;5.45;;
63511;SDS011;49666;52.030;8.884;2024-01-15T10:08:25;6.45;;;4.30;;
63511;SDS011;49666;52.030;8.884;2024-01-15T10:10:50;5.47;;;3.30;;
63511;SDS011;49666;52.030;8.884;2024-01-15T10:13:16;5.65;;;2.40;;
63511;SDS011;49666;52.030;8.884;2024-01-15T10:15:44;5.82;;;3.13;;
63511;SDS011;49666;52.030;8.884;2024-01-15T10:18:12;7.25;;;2.88;;
63511;SDS011;49666;52.030;8.884;2024-01-15T10:20:37;12.48;;;6.20;;
63511;SDS011;49666;52.030;8.884;2024-01-15T10:23:02;7.90;;;4.20;;
63511;SDS011;49666;52.030;8.884;2024-01-15T10:25:28;7.55;;;4.18;;
63511;SDS011;49666;52.030;8.884;2024-01-15T10:28:00;8.77;;;3.72;;
63511;SDS011;49666;52.030;8.884;2024-01-15T10:30:27;6.30;;;3.05;;
63511;SDS011;49666;52.030;8.884;2024-01-15T10:32:57;7.18;;;2.92;;
63511;SDS011;49666;52.030;8.884;2024-01-15T10:35:25;4.07;;;3.08;;
63511;SDS011;49666;52.030;8.884;2024-01-15T10:37:52;9.13;;;3.00;;
63511;SDS011;49666;52.030;8.884;2024-01-15T10:40:18;5.97;;;3.65;;
63511;SDS011;49666;52.030;8.884;2024-01-15T10:42:44;8.07;;;2.80;;
63511;SDS011;49666;52.030;8.884;2024-01-15T10:45:09;8.57;;;3.20;;
63511;SDS011;49666;52.030;8.884;2024-01-15T10:47:35;5.93;;;3.00;;
63511;SDS011;49666;52.030;8.884;2024-01-15T10:50:01;4.38;;;3.00;;
63511;SDS011;49666;52.030;8.884;2024-01-15T10:52:27;9.23;;;3.08;;
63511;SDS011;49666;52.030;8.884;2024-01-15T10:54:53;11.30;;;4.20;;
63511;SDS011;49666;52.030;8.884;2024-01-15T10:57:19;6.72;;;3.53;;
63511;SDS011;49666;52.030;8.884;2024-01-15T10:59:47;7.50;;;3.90;;
63511;SDS011;49666;52.030;8.884;2024-01-15T11:02:13;12.20;;;3.92;;
63511;SDS011;49666;52.030;8.884;2024-01-15T11:04:40;7.70;;;3.45;;
63511;SDS011;49666;52.030;8.884;2024-01-15T11:07:05;9.00;;;3.97;;
63511;SDS011;49666;52.030;8.884;2024-01-15T11:09:31;12.55;;;4.55;;
63511;SDS011;49666;52.030;8.884;2024-01-15T11:12:06;12.05;;;5.22;;
63511;SDS011;49666;52.030;8.884;2024-01-15T11:14:34;6.88;;;3.38;;
63511;SDS011;49666;52.030;8.884;2024-01-15T11:17:03;7.53;;;3.53;;
63511;SDS011;49666;52.030;8.884;2024-01-15T11:24:57;7.38;;;3.72;;
63511;SDS011;49666;52.030;8.884;2024-01-15T11:30:10;6.93;;;3.15;;
63511;SDS011;49666;52.030;8.884;2024-01-15T11:32:37;4.90;;;3.20;;
63511;SDS011;49666;52.030;8.884;2024-01-15T11:35:06;5.30;;;2.78;;
63511;SDS011;49666;52.030;8.884;2024-01-15T11:40:17;6.97;;;3.35;;
63511;SDS011;49666;52.030;8.884;2024-01-15T11:42:44;9.30;;;4.32;;
63511;SDS011;49666;52.030;8.884;2024-01-15T11:45:10;8.52;;;3.78;;
63511;SDS011;49666;52.030;8.884;2024-01-15T11:50:29;13.18;;;6.43;;
63511;SDS011;49666;52.030;8.884;2024-01-15T11:52:59;12.52;;;4.30;;
63511;SDS011;49666;52.030;8.884;2024-01-15T11:55:27;7.97;;;4.60;;
63511;SDS011;49666;52.030;8.884;2024-01-15T11:57:55;8.40;;;3.50;;
63511;SDS011;49666;52.030;8.884;2024-01-15T12:00:22;10.70;;;3.55;;
63511;SDS011;49666;52.030;8.884;2024-01-15T12:02:48;8.00;;;3.55;;
63511;SDS011;49666;52.030;8.884;2024-01-15T12:05:16;11.77;;;3.75;;
63511;SDS011;49666;52.030;8.884;2024-01-15T12:07:43;10.70;;;3.78;;
63511;SDS011;49666;52.030;8.884;2024-01-15T12:10:11;7.72;;;3.25;;
63511;SDS011;49666;52.030;8.884;2024-01-15T12:15:11;6.25;;;2.45;;
63511;SDS011;49666;52.030;8.884;2024-01-15T12:17:36;10.57;;;3.47;;
63511;SDS011;49666;52.030;8.884;2024-01-15T12:20:03;13.65;;;4.30;;
63511;SDS011;49666;52.030;8.884;2024-01-15T12:22:29;13.13;;;4.65;;
63511;SDS011;49666;52.030;8.884;2024-01-15T12:24:54;12.20;;;3.25;;
63511;SDS011;49666;52.030;8.884;2024-01-15T12:27:20;9.50;;;3.42;;
63511;SDS011;49666;52.030;8.884;2024-01-15T12:29:46;7.43;;;3.08;;
63511;SDS011;49666;52.030;8.884;2024-01-15T12:32:12;8.60;;;4.10;;
63511;SDS011;49666;52.030;8.884;2024-01-15T12:34:37;5.13;;;2.85;;
63511;SDS011;49666;52.030;8.884;2024-01-15T12:37:03;8.57;;;3.88;;
63511;SDS011;49666;52.030;8.884;2024-01-15T12:39:28;8.95;;;2.90;;
63511;SDS011;49666;52.030;8.884;2024-01-15T12:41:54;7.78;;;3.10;;
63511;SDS011;49666;52.030;8.884;2024-01-15T12:44:19;5.75;;;2.67;;
63511;SDS011;49666;52.030;8.884;2024-01-15T12:46:45;6.53;;;2.67;;
63511;SDS011;49666;52.030;8.884;2024-01-15T12:49:10;4.53;;;2.30;;
63511;SDS011;49666;52.030;8.884;2024-01-15T12:51:35;5.10;;;2.33;;
63511;SDS011;49666;52.030;8.884;2024-01-15T12:54:01;4.97;;;2.60;;
63511;SDS011;49666;52.030;8.884;2024-01-15T12:56:26;4.63;;;2.40;;
63511;SDS011;49666;52.030;8.884;2024-01-15T12:58:51;9.35;;;2.63;;
63511;SDS011;49666;52.030;8.884;2024-01-15T13:01:17;7.63;;;2.08;;
63511;SDS011;49666;52.030;8.884;2024-01-15T13:03:42;4.10;;;2.22;;
63511;SDS011;49666;52.030;8.884;2024-01-15T13:06:07;9.48;;;2.10;;
63511;SDS011;49666;52.030;8.884;2024-01-15T13:08:33;8.20;;;2.83;;
63511;SDS011;49666;52.030;8.884;2024-01-15T13:10:58;4.78;;;2.70;;
63511;SDS011;49666;52.030;8.884;2024-01-15T13:13:23;5.35;;;2.92;;
63511;SDS011;49666;52.030;8.884;2024-01-15T13:15:49;4.40;;;2.10;;
63511;SDS011;49666;52.030;8.884;2024-01-15T13:18:14;4.18;;;2.28;;
63511;SDS011;49666;52.030;8.884;2024-01-15T13:20:40;4.65;;;1.90;;
63511;SDS011;49666;52.030;8.884;2024-01-15T13:23:05;3.95;;;2.13;;
63511;SDS011;49666;52.030;8.884;2024-01-15T13:25:30;6.20;;;3.13;;
63511;SDS011;49666;52.030;8.884;2024-01-15T13:27:57;7.00;;;2.97;;
63511;SDS011;49666;52.030;8.884;2024-01-15T13:30:22;10.18;;;3.03;;
63511;SDS011;49666;52.030;8.884;2024-01-15T13:32:48;9.02;;;4.22;;
63511;SDS011;49666;52.030;8.884;2024-01-15T13:35:13;18.33;;;7.53;;
63511;SDS011;49666;52.030;8.884;2024-01-15T13:37:39;11.30;;;3.80;;
63511;SDS011;49666;52.030;8.884;2024-01-15T13:40:06;6.15;;;2.65;;
63511;SDS011;49666;52.030;8.884;2024-01-15T13:42:33;4.00;;;1.92;;
63511;SDS011;49666;52.030;8.884;2024-01-15T13:44:59;15.57;;;8.63;;
63511;SDS011;49666;52.030;8.884;2024-01-15T13:47:24;13.00;;;6.82;;
63511;SDS011;49666;52.030;8.884;2024-01-15T13:49:49;6.15;;;2.97;;
63511;SDS011;49666;52.030;8.884;2024-01-15T13:52:15;7.30;;;2.65;;
63511;SDS011;49666;52.030;8.884;2024-01-15T13:54:40;6.18;;;3.50;;
63511;SDS011;49666;52.030;8.884;2024-01-15T13:57:05;9.50;;;3.90;;
63511;SDS011;49666;52.030;8.884;2024-01-15T13:59:31;9.20;;;4.05;;
63511;SDS011;49666;52.030;8.884;2024-01-15T14:01:57;10.20;;;3.95;;
63511;SDS011;49666;52.030;8.884;2024-01-15T14:04:22;5.82;;;2.60;;
63511;SDS011;49666;52.030;8.884;2024-01-15T14:06:48;8.65;;;2.33;;
63511;SDS011;49666;52.030;8.884;2024-01-15T14:09:13;5.55;;;2.30;;
63511;SDS011;49666;52.030;8.884;2024-01-15T14:11:39;5.07;;;2.28;;
63511;SDS011;49666;52.030;8.884;2024-01-15T14:14:04;4.90;;;2.40;;
63511;SDS011;49666;52.030;8.884;2024-01-15T14:16:30;6.20;;;2.65;;
63511;SDS011;49666;52.030;8.884;2024-01-15T14:18:55;9.10;;;3.38;;
63511;SDS011;49666;52.030;8.884;2024-01-15T14:21:20;9.32;;;3.08;;
63511;SDS011;49666;52.030;8.884;2024-01-15T14:23:46;10.07;;;2.75;;
63511;SDS011;49666;52.030;8.884;2024-01-15T14:26:11;11.90;;;6.18;;
63511;SDS011;49666;52.030;8.884;2024-01-15T14:28:36;9.90;;;5.10;;
63511;SDS011;49666;52.030;8.884;2024-01-15T14:31:02;8.07;;;3.70;;
63511;SDS011;49666;52.030;8.884;2024-01-15T14:33:27;7.22;;;4.05;;
63511;SDS011;49666;52.030;8.884;2024-01-15T14:35:53;4.78;;;2.40;;
63511;SDS011;49666;52.030;8.884;2024-01-15T14:38:18;7.25;;;2.85;;
63511;SDS011;49666;52.030;8.884;2024-01-15T14:40:44;7.82;;;3.92;;
63511;SDS011;49666;52.030;8.884;2024-01-15T14:43:09;8.18;;;3.30;;
63511;SDS011;49666;52.030;8.884;2024-01-15T14:45:35;8.90;;;3.30;;
63511;SDS011;49666;52.030;8.884;2024-01-15T14:48:01;5.28;;;2.13;;